Time,TemperatureF,DewpointF,PressureIn,WindDirection,WindDirectionDegrees,WindSpeedMPH,WindSpeedGustMPH,Humidity,HourlyPrecipIn,Conditions,Clouds,dailyrainin,SoftwareType,DateUTC
2013-03-15 00:00:00,52.4,47.1,30.03,South,184,0.0,5.0,82,0.00,,,0.00,Wunderground v.1.15,2013-03-15 07:00:00,
2013-03-15 00:10:00,52.6,47.3,30.03,South,184,0.0,5.0,82,0.00,,,0.00,Wunderground v.1.15,2013-03-15 07:10:00,
2013-03-15 00:15:00,52.6,47.6,30.03,South,184,0.0,5.0,83,0.00,,,0.00,Wunderground v.1.15,2013-03-15 07:15:00,
2013-03-15 00:20:00,52.7,47.7,30.03,South,184,0.0,5.0,83,0.00,,,0.00,Wunderground v.1.15,2013-03-15 07:20:00,
2013-03-15 00:25:00,52.8,47.8,30.03,South,184,0.0,5.0,83,0.00,,,0.00,Wunderground v.1.15,2013-03-15 07:25:00,
2013-03-15 00:30:00,52.7,47.7,30.03,South,184,0.0,5.0,83,0.00,,,0.00,Wunderground v.1.15,2013-03-15 07:30:00,
2013-03-15 00:40:00,52.7,47.7,30.03,South,184,0.0,5.0,83,0.00,,,0.00,Wunderground v.1.15,2013-03-15 07:40:00,
2013-03-15 00:45:00,52.7,47.7,30.03,South,184,0.0,5.0,83,0.00,,,0.00,Wunderground v.1.15,2013-03-15 07:45:00,
2013-03-15 00:50:00,52.6,47.6,30.03,South,184,0.0,5.0,83,0.00,,,0.00,Wunderground v.1.15,2013-03-15 07:50:00,
2013-03-15 00:55:00,52.5,47.5,30.03,South,184,0.0,5.0,83,0.00,,,0.00,Wunderground v.1.15,2013-03-15 07:55:00,
2013-03-15 01:04:00,52.3,47.3,30.03,South,184,0.0,5.0,83,0.00,,,0.00,Wunderground v.1.15,2013-03-15 08:04:00,
2013-03-15 01:10:00,52.2,47.2,30.03,South,184,0.0,5.0,83,0.00,,,0.00,Wunderground v.1.15,2013-03-15 08:10:00,
2013-03-15 01:20:00,51.9,46.9,30.03,South,184,0.0,5.0,83,0.00,,,0.00,Wunderground v.1.15,2013-03-15 08:20:00,
2013-03-15 01:25:00,51.8,46.8,30.03,South,184,0.0,5.0,83,0.00,,,0.00,Wunderground v.1.15,2013-03-15 08:25:00,
2013-03-15 01:30:00,51.6,46.6,30.03,South,184,0.0,5.0,83,0.00,,,0.00,Wunderground v.1.15,2013-03-15 08:30:00,
2013-03-15 01:35:00,51.4,46.4,30.03,South,184,0.0,5.0,83,0.00,,,0.00,Wunderground v.1.15,2013-03-15 08:35:00,
2013-03-15 01:40:00,51.3,46.3,30.02,South,184,0.0,5.0,83,0.00,,,0.00,Wunderground v.1.15,2013-03-15 08:40:00,
2013-03-15 01:50:00,50.9,45.9,30.02,South,184,0.0,5.0,83,0.00,,,0.00,Wunderground v.1.15,2013-03-15 08:50:00,
2013-03-15 01:55:00,50.8,45.8,30.02,South,184,0.0,5.0,83,0.00,,,0.00,Wunderground v.1.15,2013-03-15 08:55:00,
2013-03-15 02:00:00,50.6,45.9,30.02,South,184,0.0,5.0,84,0.00,,,0.00,Wunderground v.1.15,2013-03-15 09:00:00,
2013-03-15 02:05:00,50.5,45.8,30.02,South,184,0.0,5.0,84,0.00,,,0.00,Wunderground v.1.15,2013-03-15 09:05:00,
2013-03-15 02:10:00,50.4,45.7,30.02,South,184,0.0,5.0,84,0.00,,,0.00,Wunderground v.1.15,2013-03-15 09:10:00,
2013-03-15 02:20:00,50.1,45.5,30.03,South,184,0.0,5.0,84,0.00,,,0.00,Wunderground v.1.15,2013-03-15 09:20:00,
2013-03-15 02:25:00,49.9,45.3,30.03,South,184,0.0,5.0,84,0.00,,,0.00,Wunderground v.1.15,2013-03-15 09:25:00,
2013-03-15 02:30:00,49.6,45.0,30.03,South,184,0.0,5.0,84,0.00,,,0.00,Wunderground v.1.15,2013-03-15 09:30:00,
2013-03-15 02:35:00,49.5,44.9,30.02,South,184,0.0,5.0,84,0.00,,,0.00,Wunderground v.1.15,2013-03-15 09:35:00,
2013-03-15 02:40:00,49.3,45.0,30.02,South,184,0.0,5.0,85,0.00,,,0.00,Wunderground v.1.15,2013-03-15 09:40:00,
2013-03-15 02:45:00,49.2,44.9,30.02,South,184,0.0,5.0,85,0.00,,,0.00,Wunderground v.1.15,2013-03-15 09:45:00,
2013-03-15 02:55:00,48.9,44.6,30.02,South,184,0.0,5.0,85,0.00,,,0.00,Wunderground v.1.15,2013-03-15 09:55:00,
2013-03-15 03:00:00,48.7,44.7,30.02,South,184,0.0,5.0,86,0.00,,,0.00,Wunderground v.1.15,2013-03-15 10:00:00,
2013-03-15 03:05:00,48.6,44.6,30.02,South,184,0.0,5.0,86,0.00,,,0.00,Wunderground v.1.15,2013-03-15 10:05:00,
2013-03-15 03:10:00,48.5,44.5,30.02,South,184,0.0,5.0,86,0.00,,,0.00,Wunderground v.1.15,2013-03-15 10:10:00,
2013-03-15 03:15:00,48.3,44.3,30.02,South,184,0.0,5.0,86,0.00,,,0.00,Wunderground v.1.15,2013-03-15 10:15:00,
2013-03-15 03:25:00,48.0,44.0,30.02,South,184,0.0,5.0,86,0.00,,,0.00,Wunderground v.1.15,2013-03-15 10:25:00,
2013-03-15 03:30:00,47.8,43.8,30.01,South,184,0.0,5.0,86,0.00,,,0.00,Wunderground v.1.15,2013-03-15 10:30:00,
2013-03-15 03:40:00,47.8,44.4,30.02,South,184,0.0,5.0,88,0.00,,,0.00,Wunderground v.1.15,2013-03-15 10:40:00,
2013-03-15 03:45:00,47.7,44.3,30.01,South,184,0.0,5.0,88,0.00,,,0.00,Wunderground v.1.15,2013-03-15 10:45:00,
2013-03-15 03:50:00,47.6,44.2,30.01,South,184,0.0,5.0,88,0.00,,,0.00,Wunderground v.1.15,2013-03-15 10:50:00,
2013-03-15 03:55:00,47.6,44.2,30.01,South,184,0.0,5.0,88,0.00,,,0.00,Wunderground v.1.15,2013-03-15 10:55:00,
2013-03-15 04:00:00,47.6,44.2,30.01,South,184,0.0,5.0,88,0.00,,,0.00,Wunderground v.1.15,2013-03-15 11:00:00,
2013-03-15 04:05:00,47.6,44.2,30.01,South,184,0.0,5.0,88,0.00,,,0.00,Wunderground v.1.15,2013-03-15 11:05:00,
2013-03-15 04:10:00,47.5,44.4,30.00,South,184,0.0,5.0,89,0.00,,,0.00,Wunderground v.1.15,2013-03-15 11:10:00,
2013-03-15 04:15:00,47.6,44.5,30.00,South,184,0.0,5.0,89,0.00,,,0.00,Wunderground v.1.15,2013-03-15 11:15:00,
2013-03-15 04:24:00,47.7,44.9,30.00,South,184,0.0,5.0,90,0.00,,,0.00,Wunderground v.1.15,2013-03-15 11:24:00,
2013-03-15 04:34:00,47.8,45.0,30.00,South,184,0.0,5.0,90,0.00,,,0.00,Wunderground v.1.15,2013-03-15 11:34:00,
2013-03-15 04:40:00,47.9,45.1,30.00,South,184,0.0,5.0,90,0.00,,,0.00,Wunderground v.1.15,2013-03-15 11:40:00,
2013-03-15 04:45:00,47.9,45.1,30.00,South,184,0.0,5.0,90,0.00,,,0.00,Wunderground v.1.15,2013-03-15 11:45:00,
2013-03-15 04:50:00,47.9,45.1,29.99,South,184,0.0,5.0,90,0.00,,,0.00,Wunderground v.1.15,2013-03-15 11:50:00,
2013-03-15 04:55:00,47.9,45.1,29.99,South,184,0.0,5.0,90,0.00,,,0.00,Wunderground v.1.15,2013-03-15 11:55:00,
2013-03-15 05:00:00,48.0,45.2,29.99,South,184,0.0,5.0,90,0.00,,,0.00,Wunderground v.1.15,2013-03-15 12:00:00,
2013-03-15 05:10:00,48.1,45.3,29.99,South,184,0.0,5.0,90,0.00,,,0.00,Wunderground v.1.15,2013-03-15 12:10:00,
2013-03-15 05:15:00,48.1,45.3,29.99,South,184,0.0,5.0,90,0.00,,,0.00,Wunderground v.1.15,2013-03-15 12:15:00,
2013-03-15 05:20:00,48.1,45.3,30.00,South,184,0.0,5.0,90,0.00,,,0.00,Wunderground v.1.15,2013-03-15 12:20:00,
2013-03-15 05:25:00,48.0,44.9,30.00,South,184,0.0,5.0,89,0.00,,,0.00,Wunderground v.1.15,2013-03-15 12:25:00,
2013-03-15 05:30:00,48.0,45.2,30.00,South,184,0.0,5.0,90,0.00,,,0.00,Wunderground v.1.15,2013-03-15 12:30:00,
2013-03-15 05:35:00,47.9,45.1,30.00,South,184,0.0,5.0,90,0.00,,,0.00,Wunderground v.1.15,2013-03-15 12:35:00,
2013-03-15 05:40:00,47.9,45.1,30.00,South,184,0.0,5.0,90,0.00,,,0.00,Wunderground v.1.15,2013-03-15 12:40:00,
2013-03-15 05:49:00,47.7,44.9,30.00,South,184,0.0,5.0,90,0.00,,,0.00,Wunderground v.1.15,2013-03-15 12:49:00,
2013-03-15 05:55:00,47.6,44.8,30.00,South,184,0.0,5.0,90,0.00,,,0.00,Wunderground v.1.15,2013-03-15 12:55:00,
2013-03-15 05:59:00,47.5,44.7,30.00,South,184,0.0,5.0,90,0.00,,,0.00,Wunderground v.1.15,2013-03-15 12:59:00,
2013-03-15 06:05:00,47.4,44.6,30.01,South,184,0.0,5.0,90,0.00,,,0.00,Wunderground v.1.15,2013-03-15 13:05:00,
2013-03-15 06:10:00,47.3,44.2,30.01,South,184,0.0,5.0,89,0.00,,,0.00,Wunderground v.1.15,2013-03-15 13:10:00,
2013-03-15 06:15:00,47.2,44.4,30.01,South,184,0.0,5.0,90,0.00,,,0.00,Wunderground v.1.15,2013-03-15 13:15:00,
2013-03-15 06:20:00,47.2,44.4,30.00,South,184,0.0,5.0,90,0.00,,,0.00,Wunderground v.1.15,2013-03-15 13:20:00,
2013-03-15 06:25:00,47.2,44.4,30.00,South,184,0.0,5.0,90,0.00,,,0.00,Wunderground v.1.15,2013-03-15 13:25:00,
2013-03-15 06:30:00,47.2,44.4,30.00,South,184,0.0,5.0,90,0.00,,,0.00,Wunderground v.1.15,2013-03-15 13:30:00,
2013-03-15 06:35:00,47.2,44.4,30.00,South,184,0.0,5.0,90,0.00,,,0.00,Wunderground v.1.15,2013-03-15 13:35:00,
2013-03-15 06:40:00,47.2,44.4,30.00,South,184,0.0,5.0,90,0.00,,,0.00,Wunderground v.1.15,2013-03-15 13:40:00,
2013-03-15 06:50:00,47.1,44.3,30.01,South,184,0.0,5.0,90,0.00,,,0.00,Wunderground v.1.15,2013-03-15 13:50:00,
2013-03-15 06:55:00,47.0,44.2,30.01,South,184,0.0,5.0,90,0.00,,,0.00,Wunderground v.1.15,2013-03-15 13:55:00,
2013-03-15 07:00:00,46.8,44.0,30.01,South,184,0.0,5.0,90,0.00,,,0.00,Wunderground v.1.15,2013-03-15 14:00:00,
2013-03-15 07:05:00,46.7,43.9,30.01,South,184,0.0,5.0,90,0.00,,,0.00,Wunderground v.1.15,2013-03-15 14:05:00,
2013-03-15 07:10:00,46.5,43.7,30.01,South,184,0.0,5.0,90,0.00,,,0.00,Wunderground v.1.15,2013-03-15 14:10:00,
2013-03-15 07:15:00,46.3,43.5,30.01,South,184,0.0,5.0,90,0.00,,,0.00,Wunderground v.1.15,2013-03-15 14:15:00,
2013-03-15 07:20:00,46.1,43.3,30.01,South,184,0.0,5.0,90,0.00,,,0.00,Wunderground v.1.15,2013-03-15 14:20:00,
2013-03-15 07:25:00,45.9,42.8,30.01,South,184,0.0,5.0,89,0.00,,,0.00,Wunderground v.1.15,2013-03-15 14:25:00,
2013-03-15 07:30:00,45.7,42.9,30.01,South,184,0.0,5.0,90,0.00,,,0.00,Wunderground v.1.15,2013-03-15 14:30:00,
2013-03-15 07:35:00,45.6,42.8,30.02,South,184,0.0,5.0,90,0.00,,,0.00,Wunderground v.1.15,2013-03-15 14:35:00,
2013-03-15 07:40:00,45.5,42.7,30.02,South,184,0.0,5.0,90,0.00,,,0.00,Wunderground v.1.15,2013-03-15 14:40:00,
2013-03-15 07:45:00,45.5,42.7,30.02,South,184,0.0,5.0,90,0.00,,,0.00,Wunderground v.1.15,2013-03-15 14:45:00,
2013-03-15 07:50:00,45.6,43.1,30.03,South,184,0.0,5.0,91,0.00,,,0.00,Wunderground v.1.15,2013-03-15 14:50:00,
2013-03-15 08:00:00,45.9,43.7,30.03,South,184,0.0,5.0,92,0.00,,,0.00,Wunderground v.1.15,2013-03-15 15:00:00,
2013-03-15 08:05:00,46.3,44.1,30.03,South,184,0.0,5.0,92,0.00,,,0.00,Wunderground v.1.15,2013-03-15 15:05:00,
2013-03-15 08:10:00,46.5,44.3,30.02,South,184,0.0,5.0,92,0.00,,,0.00,Wunderground v.1.15,2013-03-15 15:10:00,
2013-03-15 08:15:00,46.8,44.6,30.02,South,184,0.0,5.0,92,0.00,,,0.00,Wunderground v.1.15,2013-03-15 15:15:00,
2013-03-15 08:20:00,47.1,44.9,30.02,South,184,0.0,5.0,92,0.00,,,0.00,Wunderground v.1.15,2013-03-15 15:20:00,
2013-03-15 08:25:00,47.4,45.2,30.03,South,184,0.0,5.0,92,0.00,,,0.00,Wunderground v.1.15,2013-03-15 15:25:00,
2013-03-15 08:30:00,47.6,45.4,30.02,South,184,0.0,5.0,92,0.00,,,0.00,Wunderground v.1.15,2013-03-15 15:30:00,
2013-03-15 08:35:00,47.8,45.6,30.02,South,184,0.0,5.0,92,0.00,,,0.00,Wunderground v.1.15,2013-03-15 15:35:00,
2013-03-15 08:40:00,48.0,45.8,30.02,South,184,0.0,5.0,92,0.00,,,0.00,Wunderground v.1.15,2013-03-15 15:40:00,
2013-03-15 08:45:00,48.5,46.6,30.02,South,184,0.0,5.0,93,0.00,,,0.00,Wunderground v.1.15,2013-03-15 15:45:00,
2013-03-15 08:55:00,50.0,48.3,30.03,South,184,0.0,5.0,94,0.00,,,0.00,Wunderground v.1.15,2013-03-15 15:55:00,
2013-03-15 09:05:00,51.7,49.2,30.03,South,184,0.0,5.0,91,0.00,,,0.00,Wunderground v.1.15,2013-03-15 16:05:00,
2013-03-15 09:10:00,52.4,49.3,30.02,South,184,0.0,5.0,89,0.00,,,0.00,Wunderground v.1.15,2013-03-15 16:10:00,
2013-03-15 09:15:00,53.2,49.7,30.03,South,184,0.0,5.0,88,0.00,,,0.00,Wunderground v.1.15,2013-03-15 16:15:00,
2013-03-15 09:20:00,54.1,50.6,30.03,South,184,0.0,5.0,88,0.00,,,0.00,Wunderground v.1.15,2013-03-15 16:20:00,
2013-03-15 09:25:00,55.1,51.3,30.03,South,184,0.0,5.0,87,0.00,,,0.00,Wunderground v.1.15,2013-03-15 16:25:00,
2013-03-15 09:30:00,55.9,51.1,30.03,South,184,0.0,5.0,84,0.00,,,0.00,Wunderground v.1.15,2013-03-15 16:30:00,
2013-03-15 09:35:00,56.7,51.6,30.03,South,184,0.0,5.0,83,0.00,,,0.00,Wunderground v.1.15,2013-03-15 16:35:00,
2013-03-15 09:40:00,57.6,52.1,30.03,South,184,0.0,5.0,82,0.00,,,0.00,Wunderground v.1.15,2013-03-15 16:40:00,
2013-03-15 09:45:00,58.2,52.1,30.03,South,184,0.0,5.0,80,0.00,,,0.00,Wunderground v.1.15,2013-03-15 16:45:00,
2013-03-15 09:50:00,58.9,52.7,30.03,South,184,0.0,5.0,80,0.00,,,0.00,Wunderground v.1.15,2013-03-15 16:50:00,
2013-03-15 10:00:00,60.0,53.5,30.03,South,184,0.0,5.0,79,0.00,,,0.00,Wunderground v.1.15,2013-03-15 17:00:00,
2013-03-15 10:09:00,60.9,52.2,30.03,South,184,0.0,5.0,73,0.00,,,0.00,Wunderground v.1.15,2013-03-15 17:09:00,
2013-03-15 10:15:00,61.6,52.9,30.03,South,184,0.0,5.0,73,0.00,,,0.00,Wunderground v.1.15,2013-03-15 17:15:00,
2013-03-15 10:20:00,62.2,52.3,30.02,South,184,0.0,5.0,70,0.00,,,0.00,Wunderground v.1.15,2013-03-15 17:20:00,
2013-03-15 10:25:00,62.9,52.2,30.02,South,184,0.0,5.0,68,0.00,,,0.00,Wunderground v.1.15,2013-03-15 17:25:00,
2013-03-15 10:30:00,63.8,52.6,30.02,South,184,0.0,5.0,67,0.00,,,0.00,Wunderground v.1.15,2013-03-15 17:30:00,
2013-03-15 10:35:00,64.7,53.1,30.03,South,184,0.0,5.0,66,0.00,,,0.00,Wunderground v.1.15,2013-03-15 17:35:00,
2013-03-15 10:40:00,65.6,53.9,30.02,South,184,0.0,5.0,66,0.00,,,0.00,Wunderground v.1.15,2013-03-15 17:40:00,
2013-03-15 10:45:00,66.2,53.7,30.02,South,184,1.0,5.0,64,0.00,,,0.00,Wunderground v.1.15,2013-03-15 17:45:00,
2013-03-15 10:50:00,66.3,53.8,30.02,South,184,1.0,5.0,64,0.00,,,0.00,Wunderground v.1.15,2013-03-15 17:50:00,
2013-03-15 10:55:00,66.8,54.2,30.02,South,184,1.0,5.0,64,0.00,,,0.00,Wunderground v.1.15,2013-03-15 17:55:00,
2013-03-15 11:00:00,67.4,53.5,30.02,South,184,1.0,5.0,61,0.00,,,0.00,Wunderground v.1.15,2013-03-15 18:00:00,
2013-03-15 11:10:00,68.9,54.0,30.02,South,184,1.0,1.0,59,0.00,,,0.00,Wunderground v.1.15,2013-03-15 18:10:00,
2013-03-15 11:19:00,70.0,54.1,30.01,South,184,1.0,5.0,57,0.00,,,0.00,Wunderground v.1.15,2013-03-15 18:19:00,
2013-03-15 11:25:00,70.8,53.3,30.01,South,184,0.0,5.0,54,0.00,,,0.00,Wunderground v.1.15,2013-03-15 18:25:00,
2013-03-15 11:30:00,71.5,54.0,30.01,South,184,1.0,1.0,54,0.00,,,0.00,Wunderground v.1.15,2013-03-15 18:30:00,
2013-03-15 11:35:00,72.1,54.0,30.01,South,180,1.0,5.0,53,0.00,,,0.00,Wunderground v.1.15,2013-03-15 18:35:00,
2013-03-15 11:40:00,72.0,54.4,30.00,South,187,3.0,3.0,54,0.00,,,0.00,Wunderground v.1.15,2013-03-15 18:40:00,
2013-03-15 11:50:00,72.1,54.5,30.00,SSW,213,3.0,5.0,54,0.00,,,0.00,Wunderground v.1.15,2013-03-15 18:50:00,
2013-03-15 11:55:00,72.3,55.2,30.00,South,187,3.0,5.0,55,0.00,,,0.00,Wunderground v.1.15,2013-03-15 18:55:00,
2013-03-15 12:00:00,72.5,56.9,30.00,South,187,3.0,3.0,58,0.00,,,0.00,Wunderground v.1.15,2013-03-15 19:00:00,
2013-03-15 12:05:00,72.5,56.9,30.00,South,186,2.0,5.0,58,0.00,,,0.00,Wunderground v.1.15,2013-03-15 19:05:00,
2013-03-15 12:10:00,72.4,56.8,29.99,South,185,3.0,5.0,58,0.00,,,0.00,Wunderground v.1.15,2013-03-15 19:10:00,
2013-03-15 12:15:00,72.8,57.6,29.99,SSE,166,2.0,5.0,59,0.00,,,0.00,Wunderground v.1.15,2013-03-15 19:15:00,
2013-03-15 12:25:00,74.0,56.8,29.99,SW,222,1.0,5.0,55,0.00,,,0.00,Wunderground v.1.15,2013-03-15 19:25:00,
2013-03-15 12:30:00,74.8,57.5,29.99,SW,224,1.0,1.0,55,0.00,,,0.00,Wunderground v.1.15,2013-03-15 19:30:00,
2013-03-15 12:35:00,75.1,56.3,29.99,WNW,301,1.0,5.0,52,0.00,,,0.00,Wunderground v.1.15,2013-03-15 19:35:00,
2013-03-15 12:45:00,75.1,57.8,29.99,SSE,168,1.0,5.0,55,0.00,,,0.00,Wunderground v.1.15,2013-03-15 19:45:00,
2013-03-15 12:50:00,75.4,57.6,29.99,SE,127,1.0,1.0,54,0.00,,,0.00,Wunderground v.1.15,2013-03-15 19:50:00,
2013-03-15 13:00:00,75.9,57.5,29.99,WSW,253,1.0,1.0,53,0.00,,,0.00,Wunderground v.1.15,2013-03-15 20:00:00,
2013-03-15 13:05:00,76.2,58.9,29.99,West,274,1.0,5.0,55,0.00,,,0.00,Wunderground v.1.15,2013-03-15 20:05:00,
2013-03-15 13:10:00,76.1,57.2,29.99,SW,232,2.0,5.0,52,0.00,,,0.00,Wunderground v.1.15,2013-03-15 20:10:00,
2013-03-15 13:15:00,75.5,56.6,29.99,South,190,3.0,5.0,52,0.00,,,0.00,Wunderground v.1.15,2013-03-15 20:15:00,
2013-03-15 13:20:00,74.6,57.4,29.99,WSW,249,3.0,3.0,55,0.00,,,0.00,Wunderground v.1.15,2013-03-15 20:20:00,
2013-03-15 13:30:00,73.2,57.5,29.99,South,175,2.0,2.0,58,0.00,,,0.00,Wunderground v.1.15,2013-03-15 20:30:00,
2013-03-15 13:39:00,72.4,55.8,29.99,South,182,2.0,2.0,56,0.00,,,0.00,Wunderground v.1.15,2013-03-15 20:39:00,
2013-03-15 13:45:00,72.2,56.1,29.98,NE,51,2.0,5.0,57,0.00,,,0.00,Wunderground v.1.15,2013-03-15 20:45:00,
2013-03-15 13:50:00,72.0,55.4,29.98,WSW,244,2.0,6.0,56,0.00,,,0.00,Wunderground v.1.15,2013-03-15 20:50:00,
2013-03-15 13:55:00,71.4,55.9,29.98,SW,222,2.0,6.0,58,0.00,,,0.00,Wunderground v.1.15,2013-03-15 20:55:00,
2013-03-15 14:05:00,72.3,55.2,29.98,West,271,1.0,4.0,55,0.00,,,0.00,Wunderground v.1.15,2013-03-15 21:05:00,
2013-03-15 14:10:00,72.1,56.0,29.98,WSW,244,2.0,2.0,57,0.00,,,0.00,Wunderground v.1.15,2013-03-15 21:10:00,
2013-03-15 14:15:00,72.3,55.7,29.98,SE,140,1.0,5.0,56,0.00,,,0.00,Wunderground v.1.15,2013-03-15 21:15:00,
2013-03-15 14:20:00,72.2,56.1,29.98,SSW,194,1.0,5.0,57,0.00,,,0.00,Wunderground v.1.15,2013-03-15 21:20:00,
2013-03-15 14:25:00,71.8,54.8,29.98,West,272,2.0,5.0,55,0.00,,,0.00,Wunderground v.1.15,2013-03-15 21:25:00,
2013-03-15 14:30:00,71.7,55.2,29.97,WSW,254,2.0,2.0,56,0.00,,,0.00,Wunderground v.1.15,2013-03-15 21:30:00,
2013-03-15 14:40:00,71.8,56.7,29.97,East,101,1.0,5.0,59,0.00,,,0.00,Wunderground v.1.15,2013-03-15 21:40:00,
2013-03-15 14:45:00,72.2,56.1,29.97,West,279,1.0,5.0,57,0.00,,,0.00,Wunderground v.1.15,2013-03-15 21:45:00,
2013-03-15 14:50:00,72.4,56.8,29.97,SSW,212,1.0,5.0,58,0.00,,,0.00,Wunderground v.1.15,2013-03-15 21:50:00,
2013-03-15 14:55:00,72.6,56.0,29.97,SSE,155,1.0,5.0,56,0.00,,,0.00,Wunderground v.1.15,2013-03-15 21:55:00,
2013-03-15 15:00:00,72.6,56.0,29.97,SSE,166,2.0,5.0,56,0.00,,,0.00,Wunderground v.1.15,2013-03-15 22:00:00,
2013-03-15 15:10:00,71.5,54.5,29.97,WSW,257,3.0,3.0,55,0.00,,,0.00,Wunderground v.1.15,2013-03-15 22:10:00,
2013-03-15 15:15:00,71.1,55.6,29.96,SW,234,3.0,5.0,58,0.00,,,0.00,Wunderground v.1.15,2013-03-15 22:15:00,
2013-03-15 15:20:00,70.7,56.1,29.96,SSE,150,2.0,5.0,60,0.00,,,0.00,Wunderground v.1.15,2013-03-15 22:20:00,
2013-03-15 15:25:00,70.7,55.2,29.96,SW,233,2.0,5.0,58,0.00,,,0.00,Wunderground v.1.15,2013-03-15 22:25:00,
2013-03-15 15:30:00,70.9,54.9,29.97,WSW,238,1.0,1.0,57,0.00,,,0.00,Wunderground v.1.15,2013-03-15 22:30:00,
2013-03-15 15:35:00,71.4,56.8,29.96,SE,133,2.0,2.0,60,0.00,,,0.00,Wunderground v.1.15,2013-03-15 22:35:00,
2013-03-15 15:40:00,71.6,54.6,29.96,SSW,211,3.0,3.0,55,0.00,,,0.00,Wunderground v.1.15,2013-03-15 22:40:00,
2013-03-15 15:45:00,71.3,55.8,29.96,SSE,155,2.0,5.0,58,0.00,,,0.00,Wunderground v.1.15,2013-03-15 22:45:00,
2013-03-15 15:55:00,71.1,55.1,29.96,South,185,2.0,5.0,57,0.00,,,0.00,Wunderground v.1.15,2013-03-15 22:55:00,
2013-03-15 16:00:00,71.2,54.2,29.96,West,277,2.0,5.0,55,0.00,,,0.00,Wunderground v.1.15,2013-03-15 23:00:00,
2013-03-15 16:05:00,70.8,55.3,29.96,SSW,195,2.0,5.0,58,0.00,,,0.00,Wunderground v.1.15,2013-03-15 23:05:00,
2013-03-15 16:10:00,71.1,55.6,29.96,West,274,2.0,5.0,58,0.00,,,0.00,Wunderground v.1.15,2013-03-15 23:10:00,
2013-03-15 16:20:00,71.5,56.9,29.96,South,182,1.0,5.0,60,0.00,,,0.00,Wunderground v.1.15,2013-03-15 23:20:00,
2013-03-15 16:25:00,72.2,56.6,29.95,SSE,152,3.0,5.0,58,0.00,,,0.00,Wunderground v.1.15,2013-03-15 23:25:00,
2013-03-15 16:30:00,72.7,55.6,29.95,SSW,192,2.0,5.0,55,0.00,,,0.00,Wunderground v.1.15,2013-03-15 23:30:00,
2013-03-15 16:35:00,71.8,55.3,29.95,South,182,2.0,5.0,56,0.00,,,0.00,Wunderground v.1.15,2013-03-15 23:35:00,
2013-03-15 16:40:00,70.9,54.9,29.95,SSW,192,2.0,5.0,57,0.00,,,0.00,Wunderground v.1.15,2013-03-15 23:40:00,
2013-03-15 16:49:00,70.7,55.7,29.95,SSW,199,1.0,1.0,59,0.00,,,0.00,Wunderground v.1.15,2013-03-15 23:49:00,
2013-03-15 16:55:00,70.7,55.2,29.95,SSW,199,1.0,2.0,58,0.00,,,0.00,Wunderground v.1.15,2013-03-15 23:55:00,
2013-03-15 17:00:00,70.9,56.3,29.95,SSW,198,1.0,5.0,60,0.00,,,0.00,Wunderground v.1.15,2013-03-16 00:00:00,
2013-03-15 17:05:00,71.1,56.5,29.95,SSW,198,1.0,5.0,60,0.00,,,0.00,Wunderground v.1.15,2013-03-16 00:05:00,
2013-03-15 17:10:00,71.2,56.1,29.95,SSW,198,1.0,5.0,59,0.00,,,0.00,Wunderground v.1.15,2013-03-16 00:10:00,
2013-03-15 17:19:00,71.2,55.7,29.95,South,187,1.0,5.0,58,0.00,,,0.00,Wunderground v.1.15,2013-03-16 00:19:00,
2013-03-15 17:24:00,70.7,55.7,29.95,South,187,1.0,5.0,59,0.00,,,0.00,Wunderground v.1.15,2013-03-16 00:24:00,
2013-03-15 17:29:00,70.7,56.1,29.95,South,187,1.0,1.0,60,0.00,,,0.00,Wunderground v.1.15,2013-03-16 00:29:00,
2013-03-15 17:35:00,70.6,55.6,29.95,South,187,1.0,2.0,59,0.00,,,0.00,Wunderground v.1.15,2013-03-16 00:35:00,
2013-03-15 17:40:00,70.7,55.2,29.95,South,187,1.0,5.0,58,0.00,,,0.00,Wunderground v.1.15,2013-03-16 00:40:00,
2013-03-15 17:45:00,70.5,54.5,29.95,South,170,1.0,5.0,57,0.00,,,0.00,Wunderground v.1.15,2013-03-16 00:45:00,
2013-03-15 17:50:00,69.6,54.6,29.95,SW,232,2.0,2.0,59,0.00,,,0.00,Wunderground v.1.15,2013-03-16 00:50:00,
2013-03-15 17:55:00,68.8,54.3,29.95,SW,232,2.0,5.0,60,0.00,,,0.00,Wunderground v.1.15,2013-03-16 00:55:00,
2013-03-15 18:05:00,67.9,54.4,29.95,SW,232,0.0,5.0,62,0.00,,,0.00,Wunderground v.1.15,2013-03-16 01:05:00,
2013-03-15 18:10:00,67.6,54.1,29.96,SW,232,1.0,1.0,62,0.00,,,0.00,Wunderground v.1.15,2013-03-16 01:10:00,
2013-03-15 18:15:00,67.2,54.2,29.96,SW,232,1.0,5.0,63,0.00,,,0.00,Wunderground v.1.15,2013-03-16 01:15:00,
2013-03-15 18:24:00,65.8,54.1,29.96,SW,232,1.0,5.0,66,0.00,,,0.00,Wunderground v.1.15,2013-03-16 01:24:00,
2013-03-15 18:30:00,65.1,53.9,29.96,SW,232,0.0,5.0,67,0.00,,,0.00,Wunderground v.1.15,2013-03-16 01:30:00,
2013-03-15 18:35:00,64.5,53.7,29.96,SW,232,0.0,5.0,68,0.00,,,0.00,Wunderground v.1.15,2013-03-16 01:35:00,
2013-03-15 18:40:00,63.9,53.5,29.96,SW,232,0.0,5.0,69,0.00,,,0.00,Wunderground v.1.15,2013-03-16 01:40:00,
2013-03-15 18:45:00,63.6,53.6,29.96,SW,232,0.0,5.0,70,0.00,,,0.00,Wunderground v.1.15,2013-03-16 01:45:00,
2013-03-15 18:50:00,63.2,53.3,29.95,SW,232,1.0,5.0,70,0.00,,,0.00,Wunderground v.1.15,2013-03-16 01:50:00,
2013-03-15 18:55:00,62.7,53.2,29.96,SW,232,1.0,5.0,71,0.00,,,0.00,Wunderground v.1.15,2013-03-16 01:55:00,
2013-03-15 19:00:00,62.1,53.0,29.96,SW,232,0.0,5.0,72,0.00,,,0.00,Wunderground v.1.15,2013-03-16 02:00:00,
2013-03-15 19:05:00,61.6,52.5,29.96,SW,232,0.0,5.0,72,0.00,,,0.00,Wunderground v.1.15,2013-03-16 02:05:00,
2013-03-15 19:10:00,60.9,52.2,29.96,SW,232,0.0,5.0,73,0.00,,,0.00,Wunderground v.1.15,2013-03-16 02:10:00,
2013-03-15 19:15:00,60.1,51.8,29.97,SW,232,0.0,5.0,74,0.00,,,0.00,Wunderground v.1.15,2013-03-16 02:15:00,
2013-03-15 19:20:00,59.3,51.7,29.97,SW,232,0.0,5.0,76,0.00,,,0.00,Wunderground v.1.15,2013-03-16 02:20:00,
2013-03-15 19:25:00,58.6,51.4,29.97,SW,232,0.0,5.0,77,0.00,,,0.00,Wunderground v.1.15,2013-03-16 02:25:00,
2013-03-15 19:30:00,57.9,51.1,29.97,SW,232,0.0,5.0,78,0.00,,,0.00,Wunderground v.1.15,2013-03-16 02:30:00,
2013-03-15 19:39:00,56.7,50.6,29.97,SW,232,0.0,5.0,80,0.00,,,0.00,Wunderground v.1.15,2013-03-16 02:39:00,
2013-03-15 19:44:00,56.2,50.4,29.97,SW,232,0.0,5.0,81,0.00,,,0.00,Wunderground v.1.15,2013-03-16 02:44:00,
2013-03-15 19:50:00,55.9,50.5,29.97,SW,232,0.0,5.0,82,0.00,,,0.00,Wunderground v.1.15,2013-03-16 02:50:00,
2013-03-15 19:55:00,55.6,50.5,29.97,SW,232,0.0,5.0,83,0.00,,,0.00,Wunderground v.1.15,2013-03-16 02:55:00,
2013-03-15 20:00:00,55.2,50.4,29.98,SW,232,0.0,5.0,84,0.00,,,0.00,Wunderground v.1.15,2013-03-16 03:00:00,
2013-03-15 20:05:00,55.0,50.3,29.97,SW,232,0.0,5.0,84,0.00,,,0.00,Wunderground v.1.15,2013-03-16 03:05:00,
2013-03-15 20:10:00,54.9,50.2,29.97,SW,232,0.0,5.0,84,0.00,,,0.00,Wunderground v.1.15,2013-03-16 03:10:00,
2013-03-15 20:15:00,54.9,50.2,29.97,SW,232,0.0,5.0,84,0.00,,,0.00,Wunderground v.1.15,2013-03-16 03:15:00,
2013-03-15 20:20:00,54.9,50.5,29.97,SW,232,0.0,5.0,85,0.00,,,0.00,Wunderground v.1.15,2013-03-16 03:20:00,
2013-03-15 20:25:00,54.8,50.4,29.97,SW,232,1.0,5.0,85,0.00,,,0.00,Wunderground v.1.15,2013-03-16 03:25:00,
2013-03-15 20:30:00,54.5,50.1,29.96,SW,232,1.0,1.0,85,0.00,,,0.00,Wunderground v.1.15,2013-03-16 03:30:00,
2013-03-15 20:35:00,54.3,50.2,29.96,SW,232,0.0,5.0,86,0.00,,,0.00,Wunderground v.1.15,2013-03-16 03:35:00,
2013-03-15 20:45:00,53.9,49.8,29.96,SW,232,0.0,5.0,86,0.00,,,0.00,Wunderground v.1.15,2013-03-16 03:45:00,
2013-03-15 20:54:00,53.4,49.3,29.96,SW,232,0.0,5.0,86,0.00,,,0.00,Wunderground v.1.15,2013-03-16 03:54:00,
2013-03-15 20:59:00,53.3,49.5,29.96,SW,232,0.0,5.0,87,0.00,,,0.00,Wunderground v.1.15,2013-03-16 03:59:00,
2013-03-15 21:05:00,53.1,49.3,29.96,SW,232,0.0,5.0,87,0.00,,,0.00,Wunderground v.1.15,2013-03-16 04:05:00,
2013-03-15 21:09:00,53.0,49.2,29.95,SW,232,0.0,5.0,87,0.00,,,0.00,Wunderground v.1.15,2013-03-16 04:09:00,
2013-03-15 21:15:00,52.9,49.4,29.96,SW,232,0.0,5.0,88,0.00,,,0.00,Wunderground v.1.15,2013-03-16 04:15:00,
2013-03-15 21:20:00,52.8,49.3,29.96,SW,232,0.0,5.0,88,0.00,,,0.00,Wunderground v.1.15,2013-03-16 04:20:00,
2013-03-15 21:25:00,52.7,48.9,29.96,SW,232,0.0,5.0,87,0.00,,,0.00,Wunderground v.1.15,2013-03-16 04:25:00,
2013-03-15 21:30:00,52.6,49.1,29.95,SW,232,0.0,5.0,88,0.00,,,0.00,Wunderground v.1.15,2013-03-16 04:30:00,
2013-03-15 21:35:00,52.5,49.0,29.95,SW,232,0.0,5.0,88,0.00,,,0.00,Wunderground v.1.15,2013-03-16 04:35:00,
2013-03-15 21:40:00,52.3,48.9,29.95,SW,232,0.0,5.0,88,0.00,,,0.00,Wunderground v.1.15,2013-03-16 04:40:00,
2013-03-15 21:45:00,52.2,48.8,29.95,SW,232,0.0,5.0,88,0.00,,,0.00,Wunderground v.1.15,2013-03-16 04:45:00,
2013-03-15 21:50:00,52.1,48.7,29.95,SW,232,0.0,5.0,88,0.00,,,0.00,Wunderground v.1.15,2013-03-16 04:50:00,
2013-03-15 22:00:00,51.8,48.4,29.96,SW,232,0.0,5.0,88,0.00,,,0.00,Wunderground v.1.15,2013-03-16 05:00:00,
2013-03-15 22:05:00,51.7,48.3,29.96,SW,232,0.0,5.0,88,0.00,,,0.00,Wunderground v.1.15,2013-03-16 05:05:00,
2013-03-15 22:14:00,51.5,48.1,29.96,SW,232,0.0,5.0,88,0.00,,,0.00,Wunderground v.1.15,2013-03-16 05:14:00,
2013-03-15 22:20:00,51.5,48.1,29.96,SW,232,0.0,5.0,88,0.00,,,0.00,Wunderground v.1.15,2013-03-16 05:20:00,
2013-03-15 22:25:00,51.4,48.3,29.96,SW,232,0.0,5.0,89,0.00,,,0.00,Wunderground v.1.15,2013-03-16 05:25:00,
2013-03-15 22:30:00,51.4,48.3,29.96,SW,232,0.0,5.0,89,0.00,,,0.00,Wunderground v.1.15,2013-03-16 05:30:00,
2013-03-15 22:35:00,51.4,48.3,29.96,SW,232,0.0,5.0,89,0.00,,,0.00,Wunderground v.1.15,2013-03-16 05:35:00,
2013-03-15 22:40:00,51.4,48.3,29.96,SW,232,0.0,5.0,89,0.00,,,0.00,Wunderground v.1.15,2013-03-16 05:40:00,
2013-03-15 22:45:00,51.3,48.2,29.96,SW,232,0.0,5.0,89,0.00,,,0.00,Wunderground v.1.15,2013-03-16 05:45:00,
2013-03-15 22:50:00,51.2,48.1,29.96,SW,232,0.0,5.0,89,0.00,,,0.00,Wunderground v.1.15,2013-03-16 05:50:00,
2013-03-15 22:55:00,51.1,48.0,29.96,SW,232,0.0,5.0,89,0.00,,,0.00,Wunderground v.1.15,2013-03-16 05:55:00,
2013-03-15 23:05:00,50.9,47.8,29.97,SW,232,0.0,5.0,89,0.00,,,0.00,Wunderground v.1.15,2013-03-16 06:05:00,
2013-03-15 23:10:00,51.0,48.2,29.96,SW,232,0.0,5.0,90,0.00,,,0.00,Wunderground v.1.15,2013-03-16 06:10:00,
2013-03-15 23:15:00,51.2,48.4,29.96,SW,232,0.0,5.0,90,0.00,,,0.00,Wunderground v.1.15,2013-03-16 06:15:00,
2013-03-15 23:20:00,51.2,48.4,29.96,SW,232,0.0,5.0,90,0.00,,,0.00,Wunderground v.1.15,2013-03-16 06:20:00,
2013-03-15 23:25:00,51.1,48.3,29.96,SW,232,0.0,5.0,90,0.00,,,0.00,Wunderground v.1.15,2013-03-16 06:25:00,
2013-03-15 23:34:00,51.0,48.2,29.96,SW,232,0.0,5.0,90,0.00,,,0.00,Wunderground v.1.15,2013-03-16 06:34:00,
2013-03-15 23:39:00,50.9,48.4,29.96,SW,232,0.0,5.0,91,0.00,,,0.00,Wunderground v.1.15,2013-03-16 06:39:00,
2013-03-15 23:45:00,51.0,48.5,29.96,SW,232,0.0,5.0,91,0.00,,,0.00,Wunderground v.1.15,2013-03-16 06:45:00,
2013-03-15 23:50:00,51.0,48.5,29.96,SW,232,0.0,5.0,91,0.00,,,0.00,Wunderground v.1.15,2013-03-16 06:50:00,
2013-03-15 23:55:00,51.0,48.5,29.96,SW,232,0.0,5.0,91,0.00,,,0.00,Wunderground v.1.15,2013-03-16 06:55:00,